Time;durP1;ratioP1;P1;durP2;ratioP2;P2;SDS_P1;SDS_P2;PMS_P1;PMS_P2;Temp;Humidity;BMP_temperature;BMP_pressure;BME280_temperature;BME280_humidity;BME280_pressure;Samples;Min_cycle;Max_cycle;Signal;HPM_P1;HPM_P2
2022/12/16 00:00:31;;;;;;;39.73;19.13;;;-5.20;99.90;;;;;;5042025;28;20175;-69
2022/12/16 00:03:02;;;;;;;27.20;17.13;;;-5.20;99.90;;;;;;5032282;28;20214;-70
2022/12/16 00:05:28;;;;;;;32.50;17.92;;;-5.20;99.90;;;;;;5038564;28;20180;-68
2022/12/16 00:07:54;;;;;;;27.77;19.17;;;-5.20;99.90;;;;;;5041652;28;20199;-69
2022/12/16 00:10:20;;;;;;;23.65;17.25;;;-5.30;99.90;;;;;;5027976;28;20414;-69
2022/12/16 00:12:46;;;;;;;35.93;21.23;;;-5.30;99.90;;;;;;5036289;28;20198;-69
2022/12/16 00:15:11;;;;;;;24.50;19.50;;;-5.30;99.90;;;;;;5040019;28;20409;-69
2022/12/16 00:17:38;;;;;;;28.73;18.10;;;-5.30;99.90;;;;;;5033241;28;20188;-69
2022/12/16 00:20:04;;;;;;;34.70;18.00;;;-5.30;99.90;;;;;;5011347;28;20171;-69
2022/12/16 00:22:30;;;;;;;29.60;16.10;;;-5.30;99.90;;;;;;5041204;28;20199;-69
2022/12/16 00:24:56;;;;;;;23.03;15.67;;;-5.30;99.90;;;;;;5036414;28;20903;-69
2022/12/16 00:27:21;;;;;;;20.43;15.07;;;-5.30;99.90;;;;;;5040030;28;20434;-69
2022/12/16 00:29:47;;;;;;;33.80;17.37;;;-5.40;99.90;;;;;;5034005;28;20199;-68
2022/12/16 00:32:13;;;;;;;26.80;18.37;;;-5.40;99.90;;;;;;5031911;28;20188;-68
2022/12/16 00:34:38;;;;;;;23.07;16.57;;;-5.20;99.90;;;;;;5039477;28;20183;-70
2022/12/16 00:37:04;;;;;;;27.80;18.77;;;-5.30;99.90;;;;;;5031576;28;20725;-69
2022/12/16 00:39:29;;;;;;;29.50;16.47;;;-5.30;99.90;;;;;;5025028;28;20196;-70
2022/12/16 00:41:55;;;;;;;29.00;19.10;;;-5.30;99.90;;;;;;5028047;28;20334;-69
2022/12/16 00:44:21;;;;;;;35.57;16.70;;;-5.30;99.90;;;;;;5040220;28;20164;-70
2022/12/16 00:46:46;;;;;;;30.23;18.67;;;-5.30;99.90;;;;;;5033834;28;20288;-70
2022/12/16 00:49:12;;;;;;;26.37;15.87;;;-5.30;99.90;;;;;;5037871;28;20203;-69
2022/12/16 00:51:37;;;;;;;27.93;16.90;;;-5.40;99.90;;;;;;5032951;28;20176;-69
2022/12/16 00:54:03;;;;;;;34.10;18.30;;;-5.40;99.90;;;;;;5033558;28;20168;-69
2022/12/16 00:56:28;;;;;;;26.00;17.30;;;-5.40;99.90;;;;;;5032601;28;20169;-69
2022/12/16 00:58:54;;;;;;;24.97;15.67;;;-5.40;99.90;;;;;;5038829;28;20203;-69
2022/12/16 01:01:20;;;;;;;29.13;15.97;;;-5.40;99.90;;;;;;5038596;28;20171;-71
2022/12/16 01:03:45;;;;;;;26.63;17.07;;;-5.50;99.90;;;;;;5036597;28;20200;-69
2022/12/16 01:06:13;;;;;;;19.10;14.60;;;-5.50;99.90;;;;;;5019603;28;20164;-69
2022/12/16 01:08:39;;;;;;;30.73;17.80;;;-5.40;99.90;;;;;;5037252;28;20198;-69
2022/12/16 01:11:05;;;;;;;42.73;16.33;;;-5.40;99.90;;;;;;5030489;28;20176;-69
2022/12/16 01:13:32;;;;;;;23.60;14.80;;;-5.50;99.90;;;;;;5030483;28;20422;-70
2022/12/16 01:16:01;;;;;;;31.20;17.00;;;-5.50;99.90;;;;;;5040728;28;20754;-70
2022/12/16 01:18:27;;;;;;;24.60;16.45;;;-5.50;99.90;;;;;;5038800;28;20821;-70
2022/12/16 01:20:52;;;;;;;31.73;16.13;;;-5.50;99.90;;;;;;5031961;28;20180;-70
2022/12/16 01:23:18;;;;;;;30.57;16.80;;;-5.50;99.90;;;;;;5031890;28;20202;-69
2022/12/16 01:25:43;;;;;;;30.87;15.53;;;-5.60;99.90;;;;;;5033953;28;20163;-70
2022/12/16 01:28:09;;;;;;;23.43;14.40;;;-5.60;99.90;;;;;;5039024;28;20281;-70
2022/12/16 01:30:35;;;;;;;34.07;14.30;;;-5.60;99.90;;;;;;5035876;28;20171;-69
2022/12/16 01:33:00;;;;;;;20.60;15.10;;;-5.60;99.90;;;;;;5031531;28;20176;-70
2022/12/16 01:35:26;;;;;;;26.27;15.67;;;-5.60;99.90;;;;;;5029947;28;20263;-69
2022/12/16 01:37:52;;;;;;;24.37;15.77;;;-5.60;99.90;;;;;;5031079;28;20202;-69
2022/12/16 01:40:22;;;;;;;33.73;18.67;;;-5.60;99.90;;;;;;5033636;28;20175;-70
2022/12/16 01:42:48;;;;;;;28.30;16.37;;;-5.60;99.90;;;;;;5031407;28;20253;-69
2022/12/16 01:45:33;;;;;;;25.33;14.17;;;-5.60;99.90;;;;;;5031128;28;20916;-69
2022/12/16 01:48:09;;;;;;;23.58;13.52;;;-5.60;99.90;;;;;;5031396;28;20200;-70
2022/12/16 01:50:36;;;;;;;31.20;17.17;;;-5.60;99.90;;;;;;5024926;28;20217;-70
2022/12/16 01:53:03;;;;;;;15.63;13.63;;;-5.60;99.90;;;;;;5030539;28;20664;-69
2022/12/16 01:55:45;;;;;;;26.08;16.25;;;-5.50;99.90;;;;;;5029546;28;20180;-69
2022/12/16 01:58:17;;;;;;;25.73;17.13;;;-5.60;99.90;;;;;;5031965;28;20273;-69
2022/12/16 02:00:43;;;;;;;24.25;14.27;;;-5.60;99.90;;;;;;5036431;28;20401;-69
2022/12/16 02:03:09;;;;;;;23.03;16.47;;;-5.60;99.90;;;;;;5034469;28;20258;-69
2022/12/16 02:05:40;;;;;;;33.58;20.08;;;-5.60;99.90;;;;;;5034966;28;20398;-70
2022/12/16 02:08:09;;;;;;;32.73;16.83;;;-5.60;99.90;;;;;;5036008;28;20316;-70
2022/12/16 02:10:41;;;;;;;24.60;14.63;;;-5.60;99.90;;;;;;5031066;28;20413;-69
2022/12/16 02:13:26;;;;;;;27.20;14.35;;;-5.60;99.90;;;;;;5034772;28;20172;-70
2022/12/16 02:16:17;;;;;;;25.00;17.27;;;-5.60;99.90;;;;;;5031209;28;20171;-70
2022/12/16 02:19:10;;;;;;;27.10;16.20;;;-5.60;99.90;;;;;;5029638;28;20195;-71
2022/12/16 02:21:56;;;;;;;21.65;15.02;;;-5.60;99.90;;;;;;5037155;28;20668;-69
2022/12/16 02:24:43;;;;;;;23.25;16.90;;;-5.60;99.90;;;;;;5033000;28;20179;-70
2022/12/16 02:27:38;;;;;;;20.88;15.85;;;-5.60;99.90;;;;;;5038257;28;20171;-70
2022/12/16 02:30:34;;;;;;;26.73;15.50;;;-5.60;99.90;;;;;;5034932;28;20163;-69
2022/12/16 02:33:18;;;;;;;34.13;17.97;;;-5.60;99.90;;;;;;5032639;28;20437;-71
2022/12/16 02:35:59;;;;;;;23.23;15.35;;;-5.60;99.90;;;;;;5029276;28;20724;-69
2022/12/16 02:38:45;;;;;;;24.15;15.00;;;-5.70;99.90;;;;;;5028637;28;20199;-70
2022/12/16 02:41:15;;;;;;;29.00;15.93;;;-5.70;99.90;;;;;;5033210;28;20210;-70
2022/12/16 02:43:55;;;;;;;16.15;12.32;;;-5.70;99.90;;;;;;5030599;28;20333;-69
2022/12/16 02:46:28;;;;;;;25.13;15.82;;;-5.70;99.90;;;;;;5032115;28;20630;-70
2022/12/16 02:48:54;;;;;;;16.90;13.20;;;-5.70;99.90;;;;;;5033529;28;20202;-70
2022/12/16 02:51:22;;;;;;;19.97;15.10;;;-5.80;99.90;;;;;;5013222;28;20464;-70
2022/12/16 02:53:50;;;;;;;23.58;15.45;;;-5.80;99.90;;;;;;5035381;28;20413;-70
2022/12/16 02:56:41;;;;;;;21.50;11.18;;;-5.80;99.90;;;;;;5031529;28;20250;-70
2022/12/16 02:59:35;;;;;;;28.17;15.10;;;-5.80;99.90;;;;;;5028870;28;20555;-69
2022/12/16 03:02:11;;;;;;;17.88;12.13;;;-5.90;99.90;;;;;;5036731;28;20207;-70
2022/12/16 03:04:43;;;;;;;18.70;13.60;;;-5.90;99.90;;;;;;5032102;28;20175;-69
2022/12/16 03:07:13;;;;;;;18.17;13.63;;;-5.90;99.90;;;;;;5034459;28;20410;-69
2022/12/16 03:09:41;;;;;;;23.52;16.05;;;-5.90;99.90;;;;;;5035399;28;20588;-68
2022/12/16 03:12:12;;;;;;;22.88;14.25;;;-5.90;99.90;;;;;;5027293;28;20184;-70
2022/12/16 03:14:40;;;;;;;20.30;13.80;;;-5.90;99.90;;;;;;5030870;28;20175;-69
2022/12/16 03:17:07;;;;;;;28.50;13.82;;;-5.90;99.90;;;;;;5035457;28;20179;-69
2022/12/16 03:19:34;;;;;;;24.55;13.63;;;-5.90;99.90;;;;;;5036743;28;20220;-70
2022/12/16 03:22:10;;;;;;;26.23;15.60;;;-5.90;99.90;;;;;;5033762;28;20223;-69
2022/12/16 03:24:36;;;;;;;27.27;14.98;;;-5.90;99.90;;;;;;5032471;28;20174;-69
2022/12/16 03:27:17;;;;;;;23.38;13.63;;;-5.90;99.90;;;;;;5040264;28;20585;-69
2022/12/16 03:30:08;;;;;;;25.30;15.20;;;-5.90;99.90;;;;;;5034097;28;20168;-69
2022/12/16 03:32:44;;;;;;;27.67;16.70;;;-5.90;99.90;;;;;;5027676;28;20310;-69
2022/12/16 03:35:20;;;;;;;31.55;17.27;;;-5.90;99.90;;;;;;5016137;28;20544;-69
2022/12/16 03:37:50;;;;;;;19.25;15.20;;;-6.00;99.90;;;;;;5033971;28;20198;-70
2022/12/16 03:40:15;;;;;;;25.25;14.52;;;-5.90;99.90;;;;;;5033634;28;20179;-69
2022/12/16 03:42:42;;;;;;;21.90;14.43;;;-6.00;99.90;;;;;;5033797;28;20198;-71
2022/12/16 03:45:15;;;;;;;21.20;15.80;;;-6.00;99.90;;;;;;5033183;28;20409;-70
2022/12/16 03:47:41;;;;;;;24.38;13.73;;;-6.00;99.90;;;;;;5049232;28;20201;-70
2022/12/16 03:50:07;;;;;;;26.03;14.63;;;-6.00;99.90;;;;;;5040901;28;20163;-70
2022/12/16 03:52:33;;;;;;;24.58;14.35;;;-6.00;99.90;;;;;;5033466;28;20580;-70
2022/12/16 03:54:59;;;;;;;19.80;13.97;;;-6.00;99.90;;;;;;5035573;28;20179;-70
2022/12/16 03:57:24;;;;;;;22.73;14.43;;;-5.90;99.90;;;;;;5039214;28;20167;-71
2022/12/16 03:59:50;;;;;;;25.27;14.50;;;-6.00;99.90;;;;;;5068559;22;20314;-68
2022/12/16 04:02:15;;;;;;;20.73;14.37;;;-6.00;99.90;;;;;;5052876;28;20191;-67
2022/12/16 04:04:41;;;;;;;19.27;13.20;;;-6.00;99.90;;;;;;5053195;28;20167;-68
2022/12/16 04:07:19;;;;;;;22.20;15.47;;;-6.00;99.90;;;;;;5052856;28;20244;-68
2022/12/16 04:09:45;;;;;;;35.05;16.00;;;-6.10;99.90;;;;;;5052696;28;20187;-67
2022/12/16 04:26:01;;;;;;;19.90;13.93;;;-6.10;99.90;;;;;;5052624;28;20236;-67
2022/12/16 04:28:27;;;;;;;27.17;17.33;;;-6.10;99.90;;;;;;5046774;28;20175;-67
2022/12/16 04:30:52;;;;;;;21.83;15.13;;;-6.10;99.90;;;;;;5046193;28;20454;-68
